sensor_id;sensor_type;location;lat;lon;timestamp;P1;durP1;ratioP1;P2;durP2;ratioP2
11414;SDS011;5763;42.714;23.244;2023-03-01T00:01:35;2.90;;;2.45;;
11414;SDS011;5763;42.714;23.244;2023-03-01T00:04:02;2.95;;;2.40;;
11414;SDS011;5763;42.714;23.244;2023-03-01T00:06:29;3.67;;;3.13;;
11414;SDS011;5763;42.714;23.244;2023-03-01T00:08:55;2.70;;;2.47;;
11414;SDS011;5763;42.714;23.244;2023-03-01T00:11:24;3.17;;;2.47;;
11414;SDS011;5763;42.714;23.244;2023-03-01T00:13:52;2.95;;;2.50;;
11414;SDS011;5763;42.714;23.244;2023-03-01T00:16:22;3.17;;;2.63;;
11414;SDS011;5763;42.714;23.244;2023-03-01T00:18:50;2.78;;;2.47;;
11414;SDS011;5763;42.714;23.244;2023-03-01T00:21:16;4.70;;;3.35;;
11414;SDS011;5763;42.714;23.244;2023-03-01T00:23:43;4.43;;;4.03;;
11414;SDS011;5763;42.714;23.244;2023-03-01T00:26:11;4.10;;;3.70;;
11414;SDS011;5763;42.714;23.244;2023-03-01T00:28:41;3.40;;;3.10;;
11414;SDS011;5763;42.714;23.244;2023-03-01T00:31:09;2.90;;;2.70;;
11414;SDS011;5763;42.714;23.244;2023-03-01T00:33:38;3.30;;;2.95;;
11414;SDS011;5763;42.714;23.244;2023-03-01T00:36:05;3.35;;;2.78;;
11414;SDS011;5763;42.714;23.244;2023-03-01T00:38:34;3.15;;;2.70;;
11414;SDS011;5763;42.714;23.244;2023-03-01T00:41:02;3.08;;;2.45;;
11414;SDS011;5763;42.714;23.244;2023-03-01T00:43:30;2.53;;;2.20;;
11414;SDS011;5763;42.714;23.244;2023-03-01T00:46:03;2.42;;;1.80;;
11414;SDS011;5763;42.714;23.244;2023-03-01T00:48:30;2.00;;;1.80;;
11414;SDS011;5763;42.714;23.244;2023-03-01T00:50:56;2.38;;;2.08;;
11414;SDS011;5763;42.714;23.244;2023-03-01T00:53:23;2.10;;;1.80;;
11414;SDS011;5763;42.714;23.244;2023-03-01T00:55:50;2.65;;;1.60;;
11414;SDS011;5763;42.714;23.244;2023-03-01T00:58:16;2.38;;;2.10;;
11414;SDS011;5763;42.714;23.244;2023-03-01T01:00:43;1.70;;;1.60;;
11414;SDS011;5763;42.714;23.244;2023-03-01T01:03:11;2.05;;;1.85;;
11414;SDS011;5763;42.714;23.244;2023-03-01T01:05:38;1.85;;;1.75;;
11414;SDS011;5763;42.714;23.244;2023-03-01T01:08:05;1.80;;;1.58;;
11414;SDS011;5763;42.714;23.244;2023-03-01T01:10:33;1.70;;;1.55;;
11414;SDS011;5763;42.714;23.244;2023-03-01T01:13:00;2.40;;;1.90;;
11414;SDS011;5763;42.714;23.244;2023-03-01T01:15:27;1.80;;;1.70;;
11414;SDS011;5763;42.714;23.244;2023-03-01T01:17:53;2.20;;;2.00;;
11414;SDS011;5763;42.714;23.244;2023-03-01T01:20:22;2.00;;;1.80;;
11414;SDS011;5763;42.714;23.244;2023-03-01T01:22:48;1.60;;;1.50;;
11414;SDS011;5763;42.714;23.244;2023-03-01T01:25:16;1.92;;;1.73;;
11414;SDS011;5763;42.714;23.244;2023-03-01T01:27:43;2.45;;;1.92;;
11414;SDS011;5763;42.714;23.244;2023-03-01T01:30:10;1.92;;;1.73;;
11414;SDS011;5763;42.714;23.244;2023-03-01T01:32:38;1.70;;;1.60;;
11414;SDS011;5763;42.714;23.244;2023-03-01T01:35:05;1.52;;;1.42;;
11414;SDS011;5763;42.714;23.244;2023-03-01T01:37:33;1.85;;;1.75;;
11414;SDS011;5763;42.714;23.244;2023-03-01T01:40:00;1.70;;;1.58;;
11414;SDS011;5763;42.714;23.244;2023-03-01T01:42:29;1.73;;;1.63;;
11414;SDS011;5763;42.714;23.244;2023-03-01T01:47:56;2.15;;;1.95;;
11414;SDS011;5763;42.714;23.244;2023-03-01T01:50:25;1.67;;;1.58;;
11414;SDS011;5763;42.714;23.244;2023-03-01T01:53:04;1.38;;;1.27;;
11414;SDS011;5763;42.714;23.244;2023-03-01T01:55:32;2.33;;;1.50;;
11414;SDS011;5763;42.714;23.244;2023-03-01T01:58:02;1.55;;;1.40;;
11414;SDS011;5763;42.714;23.244;2023-03-01T02:00:30;1.83;;;1.65;;
11414;SDS011;5763;42.714;23.244;2023-03-01T02:02:59;1.50;;;1.40;;
11414;SDS011;5763;42.714;23.244;2023-03-01T02:05:32;2.30;;;1.67;;
11414;SDS011;5763;42.714;23.244;2023-03-01T02:08:06;2.72;;;1.73;;
11414;SDS011;5763;42.714;23.244;2023-03-01T02:10:34;1.80;;;1.70;;
11414;SDS011;5763;42.714;23.244;2023-03-01T02:13:02;2.03;;;1.55;;
11414;SDS011;5763;42.714;23.244;2023-03-01T02:15:31;1.98;;;1.88;;
11414;SDS011;5763;42.714;23.244;2023-03-01T02:17:58;2.35;;;2.03;;
11414;SDS011;5763;42.714;23.244;2023-03-01T02:20:29;2.65;;;1.50;;
11414;SDS011;5763;42.714;23.244;2023-03-01T02:23:00;1.95;;;1.38;;
11414;SDS011;5763;42.714;23.244;2023-03-01T02:25:30;1.48;;;1.38;;
11414;SDS011;5763;42.714;23.244;2023-03-01T02:28:03;1.92;;;1.27;;
11414;SDS011;5763;42.714;23.244;2023-03-01T02:30:38;1.60;;;1.27;;
11414;SDS011;5763;42.714;23.244;2023-03-01T02:33:26;1.90;;;1.67;;
11414;SDS011;5763;42.714;23.244;2023-03-01T02:35:52;1.73;;;1.60;;
11414;SDS011;5763;42.714;23.244;2023-03-01T02:38:21;1.50;;;1.40;;
11414;SDS011;5763;42.714;23.244;2023-03-01T02:40:49;1.70;;;1.52;;
11414;SDS011;5763;42.714;23.244;2023-03-01T02:43:17;2.17;;;1.70;;
11414;SDS011;5763;42.714;23.244;2023-03-01T02:45:51;1.70;;;1.48;;
11414;SDS011;5763;42.714;23.244;2023-03-01T02:48:19;1.52;;;1.42;;
11414;SDS011;5763;42.714;23.244;2023-03-01T02:50:51;1.98;;;1.70;;
11414;SDS011;5763;42.714;23.244;2023-03-01T02:53:32;1.60;;;1.50;;
11414;SDS011;5763;42.714;23.244;2023-03-01T02:56:05;1.80;;;1.70;;
11414;SDS011;5763;42.714;23.244;2023-03-01T02:58:37;2.03;;;1.80;;
11414;SDS011;5763;42.714;23.244;2023-03-01T03:01:14;2.28;;;1.90;;
11414;SDS011;5763;42.714;23.244;2023-03-01T03:03:41;1.95;;;1.85;;
11414;SDS011;5763;42.714;23.244;2023-03-01T03:06:08;2.35;;;2.08;;
11414;SDS011;5763;42.714;23.244;2023-03-01T03:08:35;1.90;;;1.50;;
11414;SDS011;5763;42.714;23.244;2023-03-01T03:11:02;1.85;;;1.73;;
11414;SDS011;5763;42.714;23.244;2023-03-01T03:13:29;2.75;;;1.73;;
11414;SDS011;5763;42.714;23.244;2023-03-01T03:15:57;1.67;;;1.58;;
11414;SDS011;5763;42.714;23.244;2023-03-01T03:18:26;1.67;;;1.40;;
11414;SDS011;5763;42.714;23.244;2023-03-01T03:20:53;1.80;;;1.70;;
11414;SDS011;5763;42.714;23.244;2023-03-01T03:23:21;1.85;;;1.70;;
11414;SDS011;5763;42.714;23.244;2023-03-01T03:25:48;1.67;;;1.58;;
11414;SDS011;5763;42.714;23.244;2023-03-01T03:28:15;1.65;;;1.55;;
11414;SDS011;5763;42.714;23.244;2023-03-01T03:30:43;2.10;;;1.90;;
11414;SDS011;5763;42.714;23.244;2023-03-01T03:33:10;2.13;;;1.60;;
11414;SDS011;5763;42.714;23.244;2023-03-01T03:35:41;2.00;;;1.80;;
11414;SDS011;5763;42.714;23.244;2023-03-01T03:38:10;1.85;;;1.75;;
11414;SDS011;5763;42.714;23.244;2023-03-01T03:40:42;3.42;;;1.50;;
11414;SDS011;5763;42.714;23.244;2023-03-01T03:43:10;2.13;;;1.92;;
11414;SDS011;5763;42.714;23.244;2023-03-01T03:45:39;2.00;;;1.77;;
11414;SDS011;5763;42.714;23.244;2023-03-01T03:48:06;2.05;;;1.85;;
11414;SDS011;5763;42.714;23.244;2023-03-01T03:50:40;2.03;;;1.60;;
11414;SDS011;5763;42.714;23.244;2023-03-01T03:53:08;1.85;;;1.73;;
11414;SDS011;5763;42.714;23.244;2023-03-01T03:55:36;3.38;;;1.90;;
11414;SDS011;5763;42.714;23.244;2023-03-01T04:00:50;2.10;;;1.90;;
11414;SDS011;5763;42.714;23.244;2023-03-01T04:03:19;1.95;;;1.75;;
11414;SDS011;5763;42.714;23.244;2023-03-01T04:05:48;1.67;;;1.58;;
11414;SDS011;5763;42.714;23.244;2023-03-01T04:08:16;1.80;;;1.70;;
11414;SDS011;5763;42.714;23.244;2023-03-01T04:10:45;1.98;;;1.77;;
11414;SDS011;5763;42.714;23.244;2023-03-01T04:13:14;2.20;;;2.00;;
11414;SDS011;5763;42.714;23.244;2023-03-01T04:15:42;1.90;;;1.65;;
11414;SDS011;5763;42.714;23.244;2023-03-01T04:18:09;1.70;;;1.58;;
11414;SDS011;5763;42.714;23.244;2023-03-01T04:20:38;1.80;;;1.70;;
11414;SDS011;5763;42.714;23.244;2023-03-01T04:23:07;1.80;;;1.70;;
11414;SDS011;5763;42.714;23.244;2023-03-01T04:25:41;2.33;;;1.67;;
11414;SDS011;5763;42.714;23.244;2023-03-01T04:28:11;1.60;;;1.50;;
11414;SDS011;5763;42.714;23.244;2023-03-01T04:30:38;2.13;;;1.92;;
11414;SDS011;5763;42.714;23.244;2023-03-01T04:33:06;1.90;;;1.70;;
11414;SDS011;5763;42.714;23.244;2023-03-01T04:35:35;1.70;;;1.60;;
11414;SDS011;5763;42.714;23.244;2023-03-01T04:38:02;1.92;;;1.52;;
11414;SDS011;5763;42.714;23.244;2023-03-01T04:40:31;2.20;;;1.90;;
11414;SDS011;5763;42.714;23.244;2023-03-01T04:42:58;2.20;;;1.80;;
11414;SDS011;5763;42.714;23.244;2023-03-01T04:45:25;1.80;;;1.65;;
11414;SDS011;5763;42.714;23.244;2023-03-01T04:47:52;1.88;;;1.67;;
11414;SDS011;5763;42.714;23.244;2023-03-01T04:50:20;2.45;;;2.25;;
11414;SDS011;5763;42.714;23.244;2023-03-01T04:52:48;2.15;;;1.80;;
11414;SDS011;5763;42.714;23.244;2023-03-01T04:55:15;1.73;;;1.63;;
11414;SDS011;5763;42.714;23.244;2023-03-01T04:57:44;2.67;;;1.20;;
11414;SDS011;5763;42.714;23.244;2023-03-01T05:00:12;1.33;;;1.20;;
11414;SDS011;5763;42.714;23.244;2023-03-01T05:02:48;1.90;;;1.30;;
11414;SDS011;5763;42.714;23.244;2023-03-01T05:05:19;1.95;;;1.38;;
11414;SDS011;5763;42.714;23.244;2023-03-01T05:07:51;1.60;;;1.10;;
11414;SDS011;5763;42.714;23.244;2023-03-01T05:10:19;2.25;;;1.13;;
11414;SDS011;5763;42.714;23.244;2023-03-01T05:12:47;1.33;;;1.10;;
11414;SDS011;5763;42.714;23.244;2023-03-01T05:15:14;1.60;;;1.35;;
11414;SDS011;5763;42.714;23.244;2023-03-01T05:17:41;1.50;;;1.40;;
11414;SDS011;5763;42.714;23.244;2023-03-01T05:20:09;1.85;;;1.50;;
11414;SDS011;5763;42.714;23.244;2023-03-01T05:22:36;2.05;;;1.40;;
11414;SDS011;5763;42.714;23.244;2023-03-01T05:25:04;2.47;;;1.80;;
11414;SDS011;5763;42.714;23.244;2023-03-01T05:27:32;2.30;;;1.90;;
11414;SDS011;5763;42.714;23.244;2023-03-01T05:30:00;2.45;;;1.90;;
11414;SDS011;5763;42.714;23.244;2023-03-01T05:32:38;2.00;;;1.70;;
11414;SDS011;5763;42.714;23.244;2023-03-01T05:35:06;2.85;;;2.25;;
11414;SDS011;5763;42.714;23.244;2023-03-01T05:37:33;2.70;;;2.40;;
11414;SDS011;5763;42.714;23.244;2023-03-01T05:40:00;2.70;;;2.45;;
11414;SDS011;5763;42.714;23.244;2023-03-01T05:42:29;3.28;;;2.35;;
11414;SDS011;5763;42.714;23.244;2023-03-01T05:44:55;3.85;;;2.92;;
11414;SDS011;5763;42.714;23.244;2023-03-01T05:47:24;3.13;;;2.65;;
11414;SDS011;5763;42.714;23.244;2023-03-01T05:49:50;5.47;;;2.38;;
11414;SDS011;5763;42.714;23.244;2023-03-01T05:52:17;3.78;;;2.60;;
11414;SDS011;5763;42.714;23.244;2023-03-01T05:54:44;3.08;;;2.65;;
11414;SDS011;5763;42.714;23.244;2023-03-01T05:57:11;2.92;;;2.58;;
11414;SDS011;5763;42.714;23.244;2023-03-01T05:59:37;3.30;;;3.00;;
11414;SDS011;5763;42.714;23.244;2023-03-01T06:02:04;4.68;;;3.20;;
11414;SDS011;5763;42.714;23.244;2023-03-01T06:04:32;3.95;;;3.35;;
11414;SDS011;5763;42.714;23.244;2023-03-01T06:06:59;5.32;;;4.32;;
11414;SDS011;5763;42.714;23.244;2023-03-01T06:09:26;4.05;;;3.60;;
11414;SDS011;5763;42.714;23.244;2023-03-01T06:11:52;4.35;;;3.35;;
11414;SDS011;5763;42.714;23.244;2023-03-01T06:14:19;4.13;;;3.42;;
11414;SDS011;5763;42.714;23.244;2023-03-01T06:16:46;3.72;;;2.80;;
11414;SDS011;5763;42.714;23.244;2023-03-01T06:19:13;4.47;;;3.03;;
11414;SDS011;5763;42.714;23.244;2023-03-01T06:21:41;4.53;;;3.20;;
11414;SDS011;5763;42.714;23.244;2023-03-01T06:24:08;5.70;;;3.30;;
11414;SDS011;5763;42.714;23.244;2023-03-01T06:26:34;3.72;;;3.17;;
11414;SDS011;5763;42.714;23.244;2023-03-01T06:29:01;3.35;;;2.80;;
11414;SDS011;5763;42.714;23.244;2023-03-01T06:31:28;3.20;;;2.67;;
11414;SDS011;5763;42.714;23.244;2023-03-01T06:33:55;4.20;;;3.13;;
11414;SDS011;5763;42.714;23.244;2023-03-01T06:36:22;4.45;;;2.55;;
11414;SDS011;5763;42.714;23.244;2023-03-01T06:38:50;4.40;;;3.15;;
11414;SDS011;5763;42.714;23.244;2023-03-01T06:41:17;3.35;;;2.92;;
11414;SDS011;5763;42.714;23.244;2023-03-01T06:43:43;3.53;;;3.22;;
11414;SDS011;5763;42.714;23.244;2023-03-01T06:46:10;3.38;;;3.08;;
11414;SDS011;5763;42.714;23.244;2023-03-01T06:48:37;2.95;;;2.60;;
11414;SDS011;5763;42.714;23.244;2023-03-01T06:51:04;4.82;;;2.67;;
11414;SDS011;5763;42.714;23.244;2023-03-01T06:53:31;2.25;;;2.03;;
11414;SDS011;5763;42.714;23.244;2023-03-01T06:55:59;2.92;;;2.22;;
11414;SDS011;5763;42.714;23.244;2023-03-01T06:58:26;2.80;;;2.40;;
11414;SDS011;5763;42.714;23.244;2023-03-01T07:00:53;2.40;;;2.20;;
11414;SDS011;5763;42.714;23.244;2023-03-01T07:03:20;3.92;;;2.40;;
11414;SDS011;5763;42.714;23.244;2023-03-01T07:05:48;3.13;;;2.53;;
11414;SDS011;5763;42.714;23.244;2023-03-01T07:08:16;2.25;;;1.98;;
11414;SDS011;5763;42.714;23.244;2023-03-01T07:10:44;2.67;;;2.17;;
11414;SDS011;5763;42.714;23.244;2023-03-01T07:13:12;2.80;;;2.50;;
11414;SDS011;5763;42.714;23.244;2023-03-01T07:15:39;2.60;;;2.08;;
11414;SDS011;5763;42.714;23.244;2023-03-01T07:18:06;3.78;;;2.72;;
11414;SDS011;5763;42.714;23.244;2023-03-01T07:20:33;3.28;;;2.05;;
11414;SDS011;5763;42.714;23.244;2023-03-01T07:23:00;3.50;;;1.90;;
11414;SDS011;5763;42.714;23.244;2023-03-01T07:25:27;3.58;;;2.20;;
11414;SDS011;5763;42.714;23.244;2023-03-01T07:27:54;3.35;;;2.40;;
11414;SDS011;5763;42.714;23.244;2023-03-01T07:30:23;3.42;;;2.40;;
11414;SDS011;5763;42.714;23.244;2023-03-01T07:32:51;4.05;;;2.33;;
11414;SDS011;5763;42.714;23.244;2023-03-01T07:35:18;3.00;;;2.40;;
11414;SDS011;5763;42.714;23.244;2023-03-01T07:37:45;4.78;;;2.50;;
11414;SDS011;5763;42.714;23.244;2023-03-01T07:40:12;3.00;;;2.35;;
11414;SDS011;5763;42.714;23.244;2023-03-01T07:42:39;2.88;;;2.58;;
11414;SDS011;5763;42.714;23.244;2023-03-01T07:45:06;3.40;;;2.45;;
11414;SDS011;5763;42.714;23.244;2023-03-01T07:47:35;2.72;;;2.40;;
11414;SDS011;5763;42.714;23.244;2023-03-01T07:50:02;4.47;;;2.45;;
11414;SDS011;5763;42.714;23.244;2023-03-01T07:52:30;2.95;;;2.45;;
11414;SDS011;5763;42.714;23.244;2023-03-01T07:54:57;3.67;;;2.63;;
11414;SDS011;5763;42.714;23.244;2023-03-01T07:57:24;5.18;;;2.38;;
11414;SDS011;5763;42.714;23.244;2023-03-01T07:59:51;4.10;;;2.47;;
11414;SDS011;5763;42.714;23.244;2023-03-01T08:02:18;2.75;;;2.50;;
11414;SDS011;5763;42.714;23.244;2023-03-01T08:04:46;3.33;;;2.53;;
11414;SDS011;5763;42.714;23.244;2023-03-01T08:07:12;2.22;;;2.03;;
11414;SDS011;5763;42.714;23.244;2023-03-01T08:09:39;3.33;;;2.20;;
11414;SDS011;5763;42.714;23.244;2023-03-01T08:12:06;2.30;;;2.10;;
11414;SDS011;5763;42.714;23.244;2023-03-01T08:14:33;4.00;;;2.03;;
11414;SDS011;5763;42.714;23.244;2023-03-01T08:17:00;4.72;;;2.30;;
11414;SDS011;5763;42.714;23.244;2023-03-01T08:19:28;2.33;;;1.98;;
11414;SDS011;5763;42.714;23.244;2023-03-01T08:21:57;3.65;;;2.22;;
11414;SDS011;5763;42.714;23.244;2023-03-01T08:24:25;3.33;;;2.42;;
11414;SDS011;5763;42.714;23.244;2023-03-01T08:26:51;2.40;;;2.20;;
11414;SDS011;5763;42.714;23.244;2023-03-01T08:29:18;3.72;;;2.10;;
11414;SDS011;5763;42.714;23.244;2023-03-01T08:31:45;3.28;;;2.65;;
11414;SDS011;5763;42.714;23.244;2023-03-01T08:34:14;2.88;;;2.13;;
11414;SDS011;5763;42.714;23.244;2023-03-01T08:36:42;4.30;;;2.65;;
11414;SDS011;5763;42.714;23.244;2023-03-01T08:39:12;3.15;;;2.25;;
11414;SDS011;5763;42.714;23.244;2023-03-01T08:41:41;4.70;;;2.30;;
11414;SDS011;5763;42.714;23.244;2023-03-01T08:44:09;2.25;;;2.05;;
11414;SDS011;5763;42.714;23.244;2023-03-01T08:46:38;10.25;;;2.50;;
11414;SDS011;5763;42.714;23.244;2023-03-01T08:49:06;2.95;;;2.22;;
11414;SDS011;5763;42.714;23.244;2023-03-01T08:51:34;2.58;;;2.10;;
11414;SDS011;5763;42.714;23.244;2023-03-01T08:54:02;3.22;;;2.28;;
11414;SDS011;5763;42.714;23.244;2023-03-01T08:56:30;4.95;;;2.67;;
11414;SDS011;5763;42.714;23.244;2023-03-01T08:58:57;3.05;;;2.75;;
11414;SDS011;5763;42.714;23.244;2023-03-01T09:01:24;3.42;;;2.40;;
11414;SDS011;5763;42.714;23.244;2023-03-01T09:03:51;2.85;;;2.47;;
11414;SDS011;5763;42.714;23.244;2023-03-01T09:06:18;2.60;;;2.30;;
11414;SDS011;5763;42.714;23.244;2023-03-01T09:08:45;3.08;;;2.75;;
11414;SDS011;5763;42.714;23.244;2023-03-01T09:11:15;3.88;;;2.70;;
11414;SDS011;5763;42.714;23.244;2023-03-01T09:13:45;2.50;;;2.30;;
11414;SDS011;5763;42.714;23.244;2023-03-01T09:16:13;3.13;;;2.60;;
11414;SDS011;5763;42.714;23.244;2023-03-01T09:18:42;2.45;;;2.08;;
11414;SDS011;5763;42.714;23.244;2023-03-01T09:21:10;2.40;;;1.85;;
11414;SDS011;5763;42.714;23.244;2023-03-01T09:23:40;2.88;;;2.20;;
11414;SDS011;5763;42.714;23.244;2023-03-01T09:26:09;3.15;;;2.30;;
11414;SDS011;5763;42.714;23.244;2023-03-01T09:28:37;2.53;;;2.22;;
11414;SDS011;5763;42.714;23.244;2023-03-01T09:31:07;2.85;;;2.20;;
11414;SDS011;5763;42.714;23.244;2023-03-01T09:33:34;2.13;;;1.98;;
11414;SDS011;5763;42.714;23.244;2023-03-01T09:36:02;3.58;;;2.00;;
11414;SDS011;5763;42.714;23.244;2023-03-01T09:38:30;1.98;;;1.77;;
11414;SDS011;5763;42.714;23.244;2023-03-01T09:40:58;2.47;;;2.28;;
11414;SDS011;5763;42.714;23.244;2023-03-01T09:43:26;2.05;;;1.85;;
11414;SDS011;5763;42.714;23.244;2023-03-01T09:46:03;3.15;;;2.25;;
11414;SDS011;5763;42.714;23.244;2023-03-01T09:48:37;2.65;;;2.22;;
11414;SDS011;5763;42.714;23.244;2023-03-01T09:51:12;2.17;;;1.70;;
11414;SDS011;5763;42.714;23.244;2023-03-01T09:53:43;1.90;;;1.70;;
11414;SDS011;5763;42.714;23.244;2023-03-01T09:56:12;3.75;;;1.95;;
11414;SDS011;5763;42.714;23.244;2023-03-01T09:58:47;2.28;;;1.83;;
11414;SDS011;5763;42.714;23.244;2023-03-01T10:01:24;2.55;;;1.90;;
11414;SDS011;5763;42.714;23.244;2023-03-01T10:04:06;1.70;;;1.45;;
11414;SDS011;5763;42.714;23.244;2023-03-01T10:06:48;3.60;;;1.90;;
11414;SDS011;5763;42.714;23.244;2023-03-01T10:09:24;1.80;;;1.60;;
11414;SDS011;5763;42.714;23.244;2023-03-01T10:11:52;3.42;;;1.98;;
11414;SDS011;5763;42.714;23.244;2023-03-01T10:14:25;3.28;;;1.67;;
11414;SDS011;5763;42.714;23.244;2023-03-01T10:17:00;2.28;;;1.73;;
11414;SDS011;5763;42.714;23.244;2023-03-01T10:19:31;1.55;;;1.40;;
11414;SDS011;5763;42.714;23.244;2023-03-01T10:22:00;2.30;;;1.63;;
11414;SDS011;5763;42.714;23.244;2023-03-01T10:24:31;1.90;;;1.50;;
11414;SDS011;5763;42.714;23.244;2023-03-01T10:27:01;2.35;;;1.88;;
11414;SDS011;5763;42.714;23.244;2023-03-01T10:29:34;2.15;;;1.90;;
11414;SDS011;5763;42.714;23.244;2023-03-01T10:32:08;2.10;;;1.67;;
11414;SDS011;5763;42.714;23.244;2023-03-01T10:34:38;1.92;;;1.67;;
11414;SDS011;5763;42.714;23.244;2023-03-01T10:37:11;2.83;;;1.85;;
11414;SDS011;5763;42.714;23.244;2023-03-01T10:42:33;4.03;;;2.22;;
11414;SDS011;5763;42.714;23.244;2023-03-01T10:45:15;1.88;;;1.65;;
11414;SDS011;5763;42.714;23.244;2023-03-01T10:48:02;4.50;;;2.50;;
11414;SDS011;5763;42.714;23.244;2023-03-01T10:50:31;3.28;;;2.20;;
11414;SDS011;5763;42.714;23.244;2023-03-01T10:52:59;2.20;;;1.75;;
11414;SDS011;5763;42.714;23.244;2023-03-01T10:55:29;4.88;;;2.05;;
11414;SDS011;5763;42.714;23.244;2023-03-01T10:58:06;3.13;;;2.38;;
11414;SDS011;5763;42.714;23.244;2023-03-01T11:00:49;2.17;;;1.98;;
11414;SDS011;5763;42.714;23.244;2023-03-01T11:03:18;2.00;;;1.70;;
11414;SDS011;5763;42.714;23.244;2023-03-01T11:05:56;2.17;;;1.58;;
11414;SDS011;5763;42.714;23.244;2023-03-01T11:08:32;2.78;;;1.63;;
11414;SDS011;5763;42.714;23.244;2023-03-01T11:11:05;2.05;;;1.65;;
11414;SDS011;5763;42.714;23.244;2023-03-01T11:13:49;2.08;;;1.52;;
11414;SDS011;5763;42.714;23.244;2023-03-01T11:16:22;2.22;;;1.10;;
11414;SDS011;5763;42.714;23.244;2023-03-01T11:18:58;1.40;;;1.30;;
11414;SDS011;5763;42.714;23.244;2023-03-01T11:21:29;1.25;;;1.10;;
11414;SDS011;5763;42.714;23.244;2023-03-01T11:23:59;1.85;;;1.42;;
11414;SDS011;5763;42.714;23.244;2023-03-01T11:26:29;1.60;;;1.35;;
11414;SDS011;5763;42.714;23.244;2023-03-01T11:31:54;2.95;;;1.50;;
11414;SDS011;5763;42.714;23.244;2023-03-01T11:34:29;2.10;;;1.60;;
11414;SDS011;5763;42.714;23.244;2023-03-01T11:37:09;2.33;;;1.70;;
11414;SDS011;5763;42.714;23.244;2023-03-01T11:39:51;1.65;;;1.52;;
11414;SDS011;5763;42.714;23.244;2023-03-01T11:42:25;2.72;;;1.75;;
11414;SDS011;5763;42.714;23.244;2023-03-01T11:45:06;2.08;;;1.38;;
11414;SDS011;5763;42.714;23.244;2023-03-01T11:47:43;1.73;;;1.30;;
11414;SDS011;5763;42.714;23.244;2023-03-01T11:50:23;2.85;;;1.77;;
11414;SDS011;5763;42.714;23.244;2023-03-01T11:53:00;2.63;;;1.42;;
11414;SDS011;5763;42.714;23.244;2023-03-01T11:55:46;1.77;;;1.48;;
11414;SDS011;5763;42.714;23.244;2023-03-01T11:58:39;2.03;;;1.20;;
11414;SDS011;5763;42.714;23.244;2023-03-01T12:01:25;1.95;;;1.50;;
11414;SDS011;5763;42.714;23.244;2023-03-01T12:04:12;2.13;;;1.77;;
11414;SDS011;5763;42.714;23.244;2023-03-01T12:06:57;2.83;;;1.73;;
11414;SDS011;5763;42.714;23.244;2023-03-01T12:09:32;3.08;;;1.70;;
11414;SDS011;5763;42.714;23.244;2023-03-01T12:12:08;2.15;;;1.20;;
11414;SDS011;5763;42.714;23.244;2023-03-01T12:14:55;2.42;;;1.30;;
11414;SDS011;5763;42.714;23.244;2023-03-01T12:17:40;1.85;;;1.60;;
11414;SDS011;5763;42.714;23.244;2023-03-01T12:20:21;2.13;;;1.45;;
11414;SDS011;5763;42.714;23.244;2023-03-01T12:23:17;3.05;;;1.90;;
11414;SDS011;5763;42.714;23.244;2023-03-01T12:25:54;2.55;;;1.90;;
11414;SDS011;5763;42.714;23.244;2023-03-01T12:31:33;2.25;;;1.80;;
11414;SDS011;5763;42.714;23.244;2023-03-01T12:34:11;3.65;;;1.80;;
11414;SDS011;5763;42.714;23.244;2023-03-01T12:36:54;2.10;;;1.88;;
11414;SDS011;5763;42.714;23.244;2023-03-01T12:39:38;3.20;;;1.85;;
11414;SDS011;5763;42.714;23.244;2023-03-01T12:42:18;3.35;;;2.20;;
11414;SDS011;5763;42.714;23.244;2023-03-01T12:44:58;4.35;;;2.25;;
11414;SDS011;5763;42.714;23.244;2023-03-01T12:47:44;2.75;;;2.15;;
11414;SDS011;5763;42.714;23.244;2023-03-01T12:50:25;2.40;;;2.10;;
11414;SDS011;5763;42.714;23.244;2023-03-01T12:53:01;4.95;;;2.80;;
11414;SDS011;5763;42.714;23.244;2023-03-01T12:55:28;2.67;;;2.20;;
11414;SDS011;5763;42.714;23.244;2023-03-01T12:58:02;3.28;;;2.80;;
11414;SDS011;5763;42.714;23.244;2023-03-01T13:00:35;3.35;;;2.53;;
11414;SDS011;5763;42.714;23.244;2023-03-01T13:03:10;4.10;;;2.03;;
11414;SDS011;5763;42.714;23.244;2023-03-01T13:05:48;3.45;;;2.50;;
11414;SDS011;5763;42.714;23.244;2023-03-01T13:08:26;4.00;;;2.65;;
11414;SDS011;5763;42.714;23.244;2023-03-01T13:10:58;4.90;;;2.80;;
11414;SDS011;5763;42.714;23.244;2023-03-01T13:13:29;6.40;;;2.97;;
11414;SDS011;5763;42.714;23.244;2023-03-01T13:15:57;3.95;;;2.72;;
11414;SDS011;5763;42.714;23.244;2023-03-01T13:18:44;4.80;;;3.10;;
11414;SDS011;5763;42.714;23.244;2023-03-01T13:21:11;4.25;;;2.47;;
11414;SDS011;5763;42.714;23.244;2023-03-01T13:23:38;2.25;;;2.05;;
11414;SDS011;5763;42.714;23.244;2023-03-01T13:28:48;2.58;;;2.38;;
11414;SDS011;5763;42.714;23.244;2023-03-01T13:34:42;3.03;;;2.72;;
11414;SDS011;5763;42.714;23.244;2023-03-01T13:37:10;4.00;;;2.90;;
11414;SDS011;5763;42.714;23.244;2023-03-01T13:39:46;3.30;;;2.42;;
11414;SDS011;5763;42.714;23.244;2023-03-01T13:45:16;3.28;;;2.20;;
11414;SDS011;5763;42.714;23.244;2023-03-01T13:47:53;6.25;;;2.75;;
11414;SDS011;5763;42.714;23.244;2023-03-01T13:50:24;3.63;;;2.90;;
11414;SDS011;5763;42.714;23.244;2023-03-01T13:52:54;2.90;;;2.47;;
11414;SDS011;5763;42.714;23.244;2023-03-01T13:55:25;4.32;;;2.85;;
11414;SDS011;5763;42.714;23.244;2023-03-01T13:57:56;3.70;;;2.33;;
11414;SDS011;5763;42.714;23.244;2023-03-01T14:00:35;3.47;;;2.40;;
11414;SDS011;5763;42.714;23.244;2023-03-01T14:03:03;3.80;;;2.22;;
11414;SDS011;5763;42.714;23.244;2023-03-01T14:05:32;3.72;;;2.40;;
11414;SDS011;5763;42.714;23.244;2023-03-01T14:08:01;2.45;;;2.03;;
11414;SDS011;5763;42.714;23.244;2023-03-01T14:10:28;2.60;;;2.33;;
11414;SDS011;5763;42.714;23.244;2023-03-01T14:13:02;3.05;;;2.75;;
11414;SDS011;5763;42.714;23.244;2023-03-01T14:15:42;3.72;;;2.72;;
11414;SDS011;5763;42.714;23.244;2023-03-01T14:18:20;3.58;;;2.38;;
11414;SDS011;5763;42.714;23.244;2023-03-01T14:20:55;5.10;;;2.45;;
11414;SDS011;5763;42.714;23.244;2023-03-01T14:23:23;3.42;;;2.60;;
11414;SDS011;5763;42.714;23.244;2023-03-01T14:25:52;2.85;;;2.50;;
11414;SDS011;5763;42.714;23.244;2023-03-01T14:28:22;3.55;;;2.63;;
11414;SDS011;5763;42.714;23.244;2023-03-01T14:30:53;4.70;;;2.90;;
11414;SDS011;5763;42.714;23.244;2023-03-01T14:33:22;3.35;;;2.70;;
11414;SDS011;5763;42.714;23.244;2023-03-01T14:35:55;3.70;;;2.60;;
11414;SDS011;5763;42.714;23.244;2023-03-01T14:38:28;2.58;;;2.35;;
11414;SDS011;5763;42.714;23.244;2023-03-01T14:41:00;3.38;;;2.85;;
11414;SDS011;5763;42.714;23.244;2023-03-01T14:43:29;3.53;;;2.60;;
11414;SDS011;5763;42.714;23.244;2023-03-01T14:45:58;4.07;;;3.00;;
11414;SDS011;5763;42.714;23.244;2023-03-01T14:48:26;3.13;;;2.42;;
11414;SDS011;5763;42.714;23.244;2023-03-01T14:50:54;3.63;;;2.58;;
11414;SDS011;5763;42.714;23.244;2023-03-01T14:53:23;2.58;;;2.00;;
11414;SDS011;5763;42.714;23.244;2023-03-01T14:55:53;2.92;;;2.60;;
11414;SDS011;5763;42.714;23.244;2023-03-01T14:58:22;4.28;;;2.63;;
11414;SDS011;5763;42.714;23.244;2023-03-01T15:00:51;2.83;;;2.30;;
11414;SDS011;5763;42.714;23.244;2023-03-01T15:03:24;3.80;;;2.95;;
11414;SDS011;5763;42.714;23.244;2023-03-01T15:05:54;5.28;;;2.72;;
11414;SDS011;5763;42.714;23.244;2023-03-01T15:08:23;3.90;;;2.65;;
11414;SDS011;5763;42.714;23.244;2023-03-01T15:11:02;3.45;;;2.42;;
11414;SDS011;5763;42.714;23.244;2023-03-01T15:13:31;5.43;;;2.25;;
11414;SDS011;5763;42.714;23.244;2023-03-01T15:16:01;4.30;;;2.70;;
11414;SDS011;5763;42.714;23.244;2023-03-01T15:18:32;3.53;;;2.33;;
11414;SDS011;5763;42.714;23.244;2023-03-01T15:21:05;4.97;;;2.95;;
11414;SDS011;5763;42.714;23.244;2023-03-01T15:23:34;3.47;;;2.17;;
11414;SDS011;5763;42.714;23.244;2023-03-01T15:26:04;3.35;;;2.53;;
11414;SDS011;5763;42.714;23.244;2023-03-01T15:28:31;4.32;;;2.85;;
11414;SDS011;5763;42.714;23.244;2023-03-01T15:31:00;3.70;;;2.65;;